Time;durP1;ratioP1;P1;durP2;ratioP2;P2;SDS_P1;SDS_P2;PMS_P1;PMS_P2;Temp;Humidity;BMP_temperature;BMP_pressure;BME280_temperature;BME280_humidity;BME280_pressure;Samples;Min_cycle;Max_cycle;Signal;HPM_P1;HPM_P2
2022/11/17 00:02:29;;;;;;;15.93;11.77;;;5.20;1.00;;;;;;5090243;28;20252;-82
2022/11/17 00:05:04;;;;;;;15.40;10.40;;;5.20;1.00;;;;;;5111381;27;20237;-83
2022/11/17 00:07:43;;;;;;;15.07;11.50;;;5.20;1.00;;;;;;5110152;27;20252;-85
2022/11/17 00:10:18;;;;;;;16.17;12.35;;;5.20;1.00;;;;;;5121126;27;20241;-82
2022/11/17 00:15:30;;;;;;;15.27;11.45;;;5.20;1.00;;;;;;5102239;27;20229;-84
2022/11/17 00:23:45;;;;;;;15.52;12.02;;;5.20;1.00;;;;;;5117636;27;20309;-81
2022/11/17 00:26:18;;;;;;;15.52;12.15;;;5.20;1.00;;;;;;5108568;27;20233;-81
2022/11/17 00:28:45;;;;;;;14.60;10.32;;;5.10;1.00;;;;;;5104727;27;20236;-85
2022/11/17 00:34:06;;;;;;;15.05;11.57;;;5.00;1.00;;;;;;5089319;27;20248;-81
2022/11/17 00:36:40;;;;;;;15.50;10.75;;;5.00;1.00;;;;;;5094679;27;20246;-83
2022/11/17 00:39:08;;;;;;;16.08;12.05;;;5.00;1.00;;;;;;5075859;28;20222;-82
2022/11/17 00:41:36;;;;;;;15.00;11.98;;;4.90;1.00;;;;;;5086845;27;20295;-83
2022/11/17 00:44:04;;;;;;;16.08;11.82;;;4.90;1.00;;;;;;5099981;27;20818;-81
2022/11/17 00:46:31;;;;;;;14.10;10.98;;;4.90;1.00;;;;;;5086474;27;20245;-83
2022/11/17 00:49:07;;;;;;;14.50;11.40;;;4.90;1.00;;;;;;5102113;27;20782;-82
2022/11/17 00:51:40;;;;;;;15.52;10.90;;;4.90;1.00;;;;;;5106851;27;20267;-83
2022/11/17 00:54:24;;;;;;;13.50;10.63;;;4.80;1.00;;;;;;5104038;27;20238;-85
2022/11/17 00:57:01;;;;;;;17.30;11.57;;;4.80;1.00;;;;;;5085596;28;20253;-85
2022/11/17 00:59:28;;;;;;;14.88;11.20;;;4.80;1.00;;;;;;5078826;28;20268;-85
2022/11/17 01:02:01;;;;;;;16.70;11.80;;;4.70;1.00;;;;;;5105720;27;20267;-82
2022/11/17 01:04:28;;;;;;;16.20;11.70;;;4.70;1.00;;;;;;5100561;27;20236;-83
2022/11/17 01:07:00;;;;;;;15.90;11.65;;;4.70;1.00;;;;;;5100517;27;20256;-81
2022/11/17 01:09:28;;;;;;;18.27;11.27;;;4.70;1.00;;;;;;5082454;27;20226;-83
2022/11/17 01:12:00;;;;;;;15.15;11.10;;;4.70;1.00;;;;;;5083505;27;20236;-84
2022/11/17 01:14:29;;;;;;;18.48;11.02;;;4.70;1.00;;;;;;5084655;27;20248;-82
2022/11/17 01:16:58;;;;;;;14.75;10.52;;;4.60;1.00;;;;;;5091106;27;20296;-84
2022/11/17 01:19:25;;;;;;;16.85;11.10;;;4.60;1.00;;;;;;5093962;27;20263;-80
2022/11/17 01:21:53;;;;;;;14.05;10.48;;;4.60;1.00;;;;;;5091943;27;20721;-82
2022/11/17 01:24:21;;;;;;;15.13;11.20;;;4.60;1.00;;;;;;5095623;27;20269;-82
2022/11/17 01:29:30;;;;;;;15.05;10.93;;;4.70;1.00;;;;;;5093881;27;20327;-82
2022/11/17 01:31:57;;;;;;;14.77;11.00;;;4.70;1.00;;;;;;5091373;27;20287;-81
2022/11/17 01:34:24;;;;;;;17.35;11.93;;;4.80;1.00;;;;;;5094396;27;20298;-83
2022/11/17 01:39:38;;;;;;;14.40;10.15;;;4.60;1.00;;;;;;5092184;27;20233;-82
2022/11/17 01:42:16;;;;;;;12.50;9.50;;;4.70;1.00;;;;;;5094151;28;20310;-85
2022/11/17 01:45:05;;;;;;;15.88;10.65;;;4.70;1.00;;;;;;5086339;27;20331;-83
2022/11/17 01:47:40;;;;;;;13.60;10.30;;;4.60;1.00;;;;;;5080184;28;20234;-82
2022/11/17 01:50:24;;;;;;;13.65;10.65;;;4.70;1.00;;;;;;5076333;28;20236;-84
2022/11/17 01:53:02;;;;;;;12.65;9.75;;;4.70;1.00;;;;;;5092627;27;20264;-84
2022/11/17 01:55:35;;;;;;;14.68;9.05;;;4.70;1.00;;;;;;5083005;28;20244;-83
2022/11/17 01:58:07;;;;;;;14.93;9.88;;;4.70;1.00;;;;;;5075716;28;20367;-82
2022/11/17 02:00:49;;;;;;;14.23;10.88;;;4.60;1.00;;;;;;5061217;28;20249;-81
2022/11/17 02:03:17;;;;;;;14.57;11.35;;;4.60;1.00;;;;;;5067230;28;20239;-82
2022/11/17 02:05:57;;;;;;;16.77;11.15;;;4.60;1.00;;;;;;5083731;28;20955;-82
2022/11/17 02:08:32;;;;;;;15.88;11.05;;;4.60;1.00;;;;;;5098865;27;20239;-84
2022/11/17 02:11:04;;;;;;;15.45;11.15;;;4.60;1.00;;;;;;5087973;28;20233;-81
2022/11/17 02:13:38;;;;;;;13.77;10.07;;;4.60;1.00;;;;;;5094905;27;21122;-84
2022/11/17 02:16:17;;;;;;;15.00;10.35;;;4.60;1.00;;;;;;5082489;28;20269;-84
2022/11/17 02:18:51;;;;;;;14.27;10.15;;;4.60;1.00;;;;;;5076318;27;20238;-82
2022/11/17 02:21:44;;;;;;;14.13;10.93;;;4.70;1.00;;;;;;5082911;27;20290;-82
2022/11/17 02:24:57;;;;;;;13.80;10.00;;;4.60;1.00;;;;;;5083947;28;20253;-81
2022/11/17 02:27:58;;;;;;;15.05;12.18;;;4.60;1.00;;;;;;5079590;28;20265;-81
2022/11/17 02:30:41;;;;;;;16.85;11.50;;;4.60;1.00;;;;;;5083048;27;20242;-85
2022/11/17 02:33:17;;;;;;;16.23;10.90;;;4.50;1.00;;;;;;5099791;27;20365;-83
2022/11/17 02:35:51;;;;;;;15.10;10.68;;;4.50;1.00;;;;;;5094194;27;20236;-82
2022/11/17 02:38:29;;;;;;;15.60;11.18;;;4.50;1.00;;;;;;5061148;27;20285;-84
2022/11/17 02:41:39;;;;;;;13.63;9.40;;;4.50;1.00;;;;;;5077622;28;20235;-84
2022/11/17 02:50:11;;;;;;;13.55;10.27;;;4.40;1.00;;;;;;5035024;28;20243;-84
2022/11/17 02:52:41;;;;;;;14.80;10.18;;;4.40;1.00;;;;;;5020921;28;20348;-86
2022/11/17 02:55:12;;;;;;;18.08;11.43;;;4.50;1.00;;;;;;5027552;28;21010;-85
2022/11/17 02:57:48;;;;;;;13.65;10.40;;;4.50;1.00;;;;;;5021186;28;20232;-85
2022/11/17 03:00:22;;;;;;;14.27;11.13;;;4.50;1.00;;;;;;5027078;28;20227;-84
2022/11/17 03:03:31;;;;;;;15.27;11.25;;;4.50;1.00;;;;;;5090204;27;20224;-86
2022/11/17 03:06:21;;;;;;;14.90;10.20;;;4.50;1.00;;;;;;5081445;28;20255;-85
2022/11/17 03:09:08;;;;;;;14.95;10.75;;;4.50;1.00;;;;;;5084624;27;20233;-86
2022/11/17 03:12:02;;;;;;;14.95;10.95;;;4.50;1.00;;;;;;5075405;28;20270;-86
2022/11/17 03:14:36;;;;;;;14.32;10.40;;;4.50;1.00;;;;;;5075901;28;20244;-86
2022/11/17 03:20:52;;;;;;;14.32;10.05;;;4.50;1.00;;;;;;5504904;22;20231;-85
2022/11/17 03:23:27;;;;;;;15.55;11.13;;;4.50;1.00;;;;;;5142548;27;20283;-84
2022/11/17 03:26:12;;;;;;;;;;;;;;;;;;;;;
2022/11/17 03:28:48;;;;;;;14.68;10.15;;;4.50;1.00;;;;;;5108383;26;20233;-84
2022/11/17 03:31:30;;;;;;;15.63;10.68;;;4.50;1.00;;;;;;5099565;27;21126;-84
2022/11/17 03:34:05;;;;;;;15.93;10.98;;;4.50;1.00;;;;;;5092216;27;20214;-85
2022/11/17 03:36:42;;;;;;;14.13;11.13;;;4.60;1.00;;;;;;5108557;27;20284;-84
2022/11/17 03:39:20;;;;;;;12.95;9.85;;;4.60;1.00;;;;;;5114762;27;20222;-85
2022/11/17 03:42:01;;;;;;;15.05;9.73;;;4.60;1.00;;;;;;5116512;27;20383;-83
2022/11/17 03:44:41;;;;;;;13.65;9.73;;;4.50;1.00;;;;;;5119977;27;20233;-84
2022/11/17 03:47:19;;;;;;;14.80;11.00;;;4.60;1.00;;;;;;5119538;27;20289;-84
2022/11/17 03:50:21;;;;;;;13.70;10.18;;;4.60;1.00;;;;;;5109324;27;20305;-85
2022/11/17 03:52:49;;;;;;;15.60;10.75;;;4.60;1.00;;;;;;5102441;27;20236;-84
2022/11/17 03:55:20;;;;;;;14.23;10.73;;;4.50;1.00;;;;;;5103405;27;20229;-85
2022/11/17 03:58:01;;;;;;;14.57;10.98;;;4.50;1.00;;;;;;5105467;27;20226;-85
2022/11/17 04:00:42;;;;;;;13.38;9.57;;;4.40;1.00;;;;;;5106395;27;20212;-86
2022/11/17 04:03:10;;;;;;;15.00;10.68;;;4.40;1.00;;;;;;5106624;27;21012;-87
2022/11/17 04:05:48;;;;;;;14.50;10.48;;;4.50;1.00;;;;;;5099567;27;20237;-85
2022/11/17 04:08:24;;;;;;;14.30;11.13;;;4.50;1.00;;;;;;5106637;27;20221;-86
2022/11/17 04:16:30;;;;;;;13.88;10.65;;;4.50;1.00;;;;;;5059830;28;20235;-85
2022/11/17 04:19:00;;;;;;;14.10;10.73;;;4.50;1.00;;;;;;5071676;28;20246;-85
2022/11/17 04:21:30;;;;;;;16.33;11.40;;;4.40;1.00;;;;;;5103259;27;20248;-84
2022/11/17 04:24:01;;;;;;;17.67;12.55;;;4.40;1.00;;;;;;5107110;27;20232;-85
2022/11/17 04:29:21;;;;;;;17.02;11.80;;;4.40;1.00;;;;;;5117293;27;20259;-85
2022/11/17 04:31:50;;;;;;;15.57;12.13;;;4.30;1.00;;;;;;5105152;27;20800;-85
2022/11/17 04:34:20;;;;;;;15.35;12.18;;;4.30;1.00;;;;;;5107214;27;20229;-84
2022/11/17 04:36:51;;;;;;;17.67;12.40;;;4.30;1.00;;;;;;5107293;27;20720;-84
2022/11/17 04:39:19;;;;;;;15.98;12.05;;;4.40;1.00;;;;;;5101684;27;20243;-85
2022/11/17 04:42:02;;;;;;;15.35;11.95;;;4.40;1.00;;;;;;5108007;27;20224;-82
2022/11/17 04:44:31;;;;;;;16.88;11.35;;;4.40;1.00;;;;;;5099395;27;20236;-84
2022/11/17 04:47:01;;;;;;;17.20;11.18;;;4.40;1.00;;;;;;5106480;27;20244;-83
2022/11/17 04:49:29;;;;;;;18.25;14.38;;;4.40;1.00;;;;;;5096352;27;20277;-86
2022/11/17 04:52:00;;;;;;;19.58;12.13;;;4.40;1.00;;;;;;5109397;27;20228;-86
2022/11/17 04:54:27;;;;;;;16.08;11.98;;;4.40;1.00;;;;;;5105823;27;20232;-85
2022/11/17 04:57:02;;;;;;;17.40;12.40;;;4.50;1.00;;;;;;5102556;27;20660;-83
2022/11/17 04:59:29;;;;;;;16.33;12.82;;;4.50;1.00;;;;;;5102609;27;20229;-82
2022/11/17 05:02:03;;;;;;;14.88;10.93;;;4.50;1.00;;;;;;5098928;27;20218;-85
2022/11/17 05:07:21;;;;;;;16.40;11.25;;;4.60;1.00;;;;;;5123895;27;20229;-83
2022/11/17 05:09:48;;;;;;;15.85;11.80;;;4.50;1.00;;;;;;5113172;27;20329;-83
2022/11/17 05:22:02;;;;;;;16.70;11.80;;;4.60;1.00;;;;;;5009661;28;20235;-91
2022/11/17 05:25:10;;;;;;;19.88;13.15;;;4.70;1.00;;;;;;5053548;28;20217;-86
2022/11/17 05:27:40;;;;;;;16.13;11.65;;;4.70;1.00;;;;;;5082135;27;20249;-81
2022/11/17 05:30:09;;;;;;;16.50;11.60;;;4.70;1.00;;;;;;5097522;27;20238;-78
2022/11/17 05:32:42;;;;;;;19.70;12.50;;;4.70;1.00;;;;;;5104775;27;20247;-79
2022/11/17 05:35:18;;;;;;;20.55;13.63;;;4.70;1.00;;;;;;5111513;27;20243;-80
2022/11/17 05:37:44;;;;;;;18.58;13.73;;;4.70;1.00;;;;;;5112670;27;20984;-79
2022/11/17 05:40:20;;;;;;;18.05;12.65;;;4.70;1.00;;;;;;5117602;27;20300;-81
2022/11/17 05:42:48;;;;;;;17.77;13.48;;;4.70;1.00;;;;;;5120503;27;20238;-82
2022/11/17 05:45:22;;;;;;;16.58;11.70;;;4.70;1.00;;;;;;5100471;27;20233;-82
2022/11/17 05:47:49;;;;;;;15.65;11.38;;;4.70;1.00;;;;;;5083932;27;20236;-81
2022/11/17 05:50:18;;;;;;;19.27;12.23;;;4.70;1.00;;;;;;5092761;27;20248;-82
2022/11/17 05:52:44;;;;;;;17.67;12.15;;;4.70;1.00;;;;;;5100445;27;20327;-81
2022/11/17 05:55:13;;;;;;;18.17;13.57;;;4.70;1.00;;;;;;5100163;27;20226;-84
2022/11/17 05:57:40;;;;;;;18.58;13.20;;;4.70;1.00;;;;;;5118854;27;20945;-84
2022/11/17 06:00:09;;;;;;;18.23;13.23;;;4.70;1.00;;;;;;5118926;27;20257;-86
2022/11/17 06:02:42;;;;;;;19.08;14.18;;;4.70;1.00;;;;;;5113864;27;20229;-82
2022/11/17 06:05:09;;;;;;;18.75;13.40;;;4.70;1.00;;;;;;5118082;27;20217;-82
2022/11/17 06:07:37;;;;;;;19.85;13.88;;;4.80;1.00;;;;;;5119022;27;20236;-83
2022/11/17 06:10:05;;;;;;;19.77;14.85;;;4.80;1.00;;;;;;5123033;27;20244;-83
2022/11/17 06:12:33;;;;;;;18.73;15.32;;;4.80;1.00;;;;;;5118038;27;20264;-82
2022/11/17 06:15:00;;;;;;;20.15;14.93;;;4.80;1.00;;;;;;5105629;27;20237;-81
2022/11/17 06:17:31;;;;;;;18.48;13.77;;;4.80;1.00;;;;;;5097967;27;20256;-80
2022/11/17 06:20:02;;;;;;;18.52;14.88;;;4.80;1.00;;;;;;5096146;27;21064;-83
2022/11/17 06:22:30;;;;;;;19.83;13.88;;;4.80;1.00;;;;;;5095156;27;21130;-83
2022/11/17 06:24:58;;;;;;;17.10;13.48;;;4.80;1.00;;;;;;5094386;27;20225;-81
2022/11/17 06:27:28;;;;;;;18.15;13.35;;;4.90;1.00;;;;;;5089989;27;20241;-81
2022/11/17 06:29:59;;;;;;;17.80;13.60;;;4.90;1.00;;;;;;5091049;27;20304;-83
2022/11/17 06:32:28;;;;;;;19.23;13.52;;;5.00;1.00;;;;;;5090216;27;20238;-83
2022/11/17 06:34:55;;;;;;;19.15;14.10;;;5.00;1.00;;;;;;5099302;27;20241;-82
2022/11/17 06:37:23;;;;;;;19.25;13.88;;;5.00;1.00;;;;;;5101131;27;21064;-82
2022/11/17 06:39:51;;;;;;;17.63;12.85;;;5.00;1.00;;;;;;5107583;27;20297;-83
2022/11/17 06:42:18;;;;;;;15.10;12.13;;;5.00;1.00;;;;;;5105001;27;20219;-83
2022/11/17 06:45:09;;;;;;;19.98;13.55;;;5.10;1.00;;;;;;5106277;27;20241;-82
2022/11/17 06:47:36;;;;;;;17.10;13.52;;;5.20;1.00;;;;;;5101570;27;21076;-81
2022/11/17 06:50:05;;;;;;;17.58;12.77;;;5.20;1.00;;;;;;5114803;27;20241;-83
2022/11/17 06:52:32;;;;;;;22.63;13.48;;;5.20;1.00;;;;;;5096008;27;20287;-83
2022/11/17 06:54:59;;;;;;;17.05;12.98;;;5.20;1.00;;;;;;5097896;28;20339;-82
2022/11/17 06:57:26;;;;;;;15.45;12.07;;;5.20;1.00;;;;;;5097432;27;20249;-83
2022/11/17 06:59:53;;;;;;;16.65;12.10;;;5.20;1.00;;;;;;5105853;27;20329;-82
2022/11/17 07:02:22;;;;;;;16.20;12.50;;;5.20;1.00;;;;;;5098272;27;20294;-82
2022/11/17 07:04:50;;;;;;;16.58;12.65;;;5.10;1.00;;;;;;5116495;27;20241;-82
2022/11/17 07:07:21;;;;;;;16.02;13.25;;;5.10;1.00;;;;;;5107185;27;20240;-83
2022/11/17 07:09:48;;;;;;;17.50;12.50;;;5.10;1.00;;;;;;5098163;27;20274;-82
2022/11/17 07:12:21;;;;;;;15.57;11.60;;;5.10;1.00;;;;;;5089199;27;20234;-85
2022/11/17 07:14:54;;;;;;;17.25;12.75;;;5.10;1.00;;;;;;5105867;27;20925;-85
2022/11/17 07:17:24;;;;;;;17.20;11.80;;;5.00;1.00;;;;;;5094256;28;20246;-85
2022/11/17 07:19:52;;;;;;;15.98;11.60;;;5.10;1.00;;;;;;5109399;27;20237;-86
2022/11/17 07:22:23;;;;;;;16.33;12.02;;;5.10;1.00;;;;;;5092146;27;20237;-84
2022/11/17 07:24:51;;;;;;;18.80;11.80;;;5.00;1.00;;;;;;5101555;27;20224;-82
2022/11/17 07:27:21;;;;;;;16.10;12.07;;;4.90;1.00;;;;;;5093549;27;20241;-83
2022/11/17 07:29:48;;;;;;;15.80;11.27;;;5.00;1.00;;;;;;5086828;28;20229;-85
2022/11/17 07:32:21;;;;;;;16.30;11.85;;;4.90;1.00;;;;;;5090846;27;20241;-83
2022/11/17 07:34:50;;;;;;;15.23;11.13;;;4.90;1.00;;;;;;5100763;27;20269;-82
2022/11/17 07:37:32;;;;;;;14.90;11.05;;;5.00;1.00;;;;;;5100142;27;20242;-83
2022/11/17 07:40:27;;;;;;;16.35;12.68;;;5.00;1.00;;;;;;5125445;27;20277;-88
2022/11/17 07:47:42;;;;;;;;;;;;;;;;;;;;;
2022/11/17 07:50:44;;;;;;;16.58;10.77;;;5.10;1.00;;;;;;4959402;28;39939;-89
2022/11/17 07:56:45;;;;;;;23.13;17.42;;;5.10;1.00;;;;;;5004152;28;20248;-88
2022/11/17 07:59:24;;;;;;;17.55;11.20;;;5.20;1.00;;;;;;5012528;27;20307;-90
2022/11/17 08:04:45;;;;;;;15.65;11.27;;;5.20;1.00;;;;;;5110127;27;20276;-89
2022/11/17 08:39:27;;;;;;;15.73;9.98;;;5.50;1.00;;;;;;4914820;28;20718;-90
2022/11/17 08:41:54;;;;;;;15.95;10.80;;;5.50;1.00;;;;;;4951518;28;20235;-83
2022/11/17 08:44:24;;;;;;;17.40;11.43;;;5.40;1.00;;;;;;4972176;28;21142;-89
2022/11/17 08:46:52;;;;;;;16.42;10.30;;;5.40;1.00;;;;;;4979807;28;20241;-87
2022/11/17 08:49:24;;;;;;;17.52;11.13;;;5.30;1.00;;;;;;5041486;28;20256;-88
2022/11/17 08:52:03;;;;;;;16.38;11.95;;;5.40;1.00;;;;;;5080692;27;20327;-87
2022/11/17 08:54:31;;;;;;;17.08;11.38;;;5.40;1.00;;;;;;5074941;27;20236;-84
2022/11/17 08:57:02;;;;;;;16.63;11.75;;;5.50;1.00;;;;;;5074866;28;20270;-84
2022/11/17 08:59:34;;;;;;;20.27;11.98;;;5.50;1.00;;;;;;5080587;27;20248;-87
2022/11/17 09:12:31;;;;;;;16.95;11.20;;;5.30;1.00;;;;;;4957856;28;20280;-82
2022/11/17 09:15:24;;;;;;;18.08;12.05;;;5.40;1.00;;;;;;5020619;28;20317;-82
2022/11/17 09:17:52;;;;;;;18.75;11.80;;;5.40;1.00;;;;;;5055006;27;21182;-82
2022/11/17 09:20:30;;;;;;;17.30;12.80;;;5.50;1.00;;;;;;5041985;28;20330;-83
2022/11/17 09:23:07;;;;;;;20.65;14.80;;;5.40;1.00;;;;;;5043129;28;20242;-83
2022/11/17 09:25:41;;;;;;;17.98;11.85;;;5.40;1.00;;;;;;5039929;28;20418;-85
2022/11/17 09:28:10;;;;;;;17.05;11.23;;;5.40;1.00;;;;;;5065956;28;21036;-81
2022/11/17 09:30:42;;;;;;;17.85;12.13;;;5.40;1.00;;;;;;5097282;27;21148;-83
2022/11/17 09:33:42;;;;;;;17.98;12.15;;;5.40;1.00;;;;;;5093896;27;20240;-83
2022/11/17 09:36:22;;;;;;;20.80;13.38;;;5.50;1.00;;;;;;5092591;27;20248;-83
2022/11/17 09:39:01;;;;;;;20.05;13.15;;;5.60;1.00;;;;;;5095808;27;20240;-83
2022/11/17 09:41:34;;;;;;;18.90;13.68;;;5.60;1.00;;;;;;5088738;27;20240;-87
2022/11/17 09:44:15;;;;;;;17.98;12.57;;;5.50;1.00;;;;;;5110934;27;20234;-88
2022/11/17 09:47:11;;;;;;;18.45;11.85;;;5.50;1.00;;;;;;5086291;28;20225;-83
2022/11/17 09:52:52;;;;;;;16.63;12.43;;;5.40;1.00;;;;;;5118552;27;20721;-83
2022/11/17 09:55:27;;;;;;;19.35;12.18;;;5.50;1.00;;;;;;5108879;27;20239;-81
2022/11/17 09:58:14;;;;;;;19.83;12.18;;;5.40;1.00;;;;;;5117649;27;21072;-81
2022/11/17 10:00:51;;;;;;;18.77;12.93;;;5.40;1.00;;;;;;5093802;27;20894;-81
2022/11/17 10:03:46;;;;;;;20.88;12.52;;;5.30;1.00;;;;;;5104015;27;20239;-80
2022/11/17 10:06:25;;;;;;;23.02;13.25;;;5.40;1.00;;;;;;5101587;27;20272;-83
2022/11/17 10:09:05;;;;;;;18.88;12.35;;;5.40;1.00;;;;;;5110399;27;20244;-81
2022/11/17 10:11:46;;;;;;;17.63;12.13;;;5.50;1.00;;;;;;5109880;27;20305;-85
2022/11/17 10:14:28;;;;;;;18.98;12.02;;;5.50;1.00;;;;;;5084045;27;20655;-82
2022/11/17 10:17:21;;;;;;;19.92;13.32;;;5.50;1.00;;;;;;5101927;27;20245;-83
2022/11/17 10:20:13;;;;;;;18.17;12.10;;;5.50;1.00;;;;;;5091700;27;20237;-82
2022/11/17 10:22:50;;;;;;;16.70;11.73;;;5.60;1.00;;;;;;5098788;27;20237;-85
2022/11/17 10:25:46;;;;;;;20.27;13.45;;;5.60;1.00;;;;;;5113215;27;20235;-82
2022/11/17 10:28:29;;;;;;;17.35;11.55;;;5.60;1.00;;;;;;5101063;27;20245;-81
2022/11/17 10:31:04;;;;;;;17.50;12.70;;;5.70;1.00;;;;;;5120086;27;20241;-80
2022/11/17 10:34:23;;;;;;;19.13;12.68;;;5.60;1.00;;;;;;5102408;27;20882;-83
2022/11/17 10:36:53;;;;;;;16.70;11.35;;;5.70;1.00;;;;;;5055105;28;20639;-82
2022/11/17 10:39:34;;;;;;;18.92;11.98;;;5.70;1.00;;;;;;5098510;27;21001;-83
2022/11/17 10:42:27;;;;;;;17.92;12.30;;;5.70;1.00;;;;;;5093072;27;20248;-83
2022/11/17 10:45:03;;;;;;;17.05;12.10;;;5.70;1.00;;;;;;5098074;27;20234;-83
2022/11/17 10:51:30;;;;;;;21.17;12.50;;;5.60;1.00;;;;;;4980696;27;21107;-82
2022/11/17 10:54:29;;;;;;;20.00;12.65;;;5.50;1.00;;;;;;5095927;27;20231;-82
2022/11/17 11:00:27;;;;;;;17.08;11.63;;;5.60;1.00;;;;;;5058370;28;20250;-81
2022/11/17 11:03:24;;;;;;;19.75;12.25;;;5.60;1.00;;;;;;5104617;27;20728;-80
2022/11/17 11:06:07;;;;;;;18.70;12.40;;;5.70;1.00;;;;;;5109536;27;21050;-82
2022/11/17 11:08:54;;;;;;;18.55;11.50;;;5.60;1.00;;;;;;5089008;27;20246;-82
2022/11/17 11:11:49;;;;;;;16.92;11.73;;;5.60;1.00;;;;;;5100294;27;20317;-86
2022/11/17 11:14:42;;;;;;;20.38;11.30;;;5.60;1.00;;;;;;5098379;27;20260;-82
2022/11/17 11:17:15;;;;;;;17.08;11.73;;;5.60;1.00;;;;;;5109755;27;20240;-83
2022/11/17 11:19:50;;;;;;;20.17;11.35;;;5.50;1.00;;;;;;5108547;27;20242;-82
2022/11/17 11:22:41;;;;;;;16.50;11.90;;;5.50;1.00;;;;;;5110355;27;20242;-85
2022/11/17 11:25:32;;;;;;;17.90;11.77;;;5.60;1.00;;;;;;5112052;27;20294;-83
2022/11/17 11:28:13;;;;;;;15.77;11.15;;;5.70;1.00;;;;;;5086430;27;20234;-81
2022/11/17 11:30:52;;;;;;;15.00;11.05;;;5.70;1.00;;;;;;5083953;28;20719;-81
2022/11/17 11:33:33;;;;;;;20.45;11.02;;;5.60;1.00;;;;;;5088997;27;20238;-82
2022/11/17 11:36:30;;;;;;;17.15;10.98;;;5.70;1.00;;;;;;5091186;27;20316;-82
2022/11/17 11:39:24;;;;;;;15.95;10.48;;;5.80;1.00;;;;;;5087199;27;20238;-82
2022/11/17 11:42:30;;;;;;;15.55;9.95;;;5.70;1.00;;;;;;5098781;27;20233;-82
2022/11/17 11:45:24;;;;;;;15.60;10.45;;;5.70;1.00;;;;;;5107713;27;20233;-83
2022/11/17 11:48:26;;;;;;;14.95;11.25;;;5.80;1.00;;;;;;5091604;27;20948;-84
2022/11/17 11:51:07;;;;;;;16.00;10.77;;;5.90;1.00;;;;;;5090015;27;20419;-82
2022/11/17 11:53:49;;;;;;;19.02;12.07;;;5.90;1.00;;;;;;5089091;27;20242;-89
2022/11/17 11:56:31;;;;;;;17.30;11.30;;;5.90;1.00;;;;;;5099081;27;20224;-84
2022/11/17 11:59:10;;;;;;;15.15;10.75;;;5.90;1.00;;;;;;5094652;27;20292;-81
2022/11/17 12:01:54;;;;;;;22.40;11.85;;;5.90;1.00;;;;;;5091079;27;20700;-82
2022/11/17 12:07:27;;;;;;;16.60;10.85;;;5.90;1.00;;;;;;5090300;27;20268;-80
2022/11/17 12:10:06;;;;;;;15.80;11.02;;;5.90;1.00;;;;;;5094732;27;20249;-82
2022/11/17 12:12:44;;;;;;;16.13;10.90;;;5.90;1.00;;;;;;5100785;27;20272;-80
2022/11/17 12:15:42;;;;;;;15.35;10.00;;;5.80;1.00;;;;;;5099831;27;20251;-82
2022/11/17 12:18:29;;;;;;;16.15;11.02;;;5.90;1.00;;;;;;5092969;27;20238;-79
2022/11/17 12:21:06;;;;;;;17.48;11.38;;;5.90;1.00;;;;;;5091602;27;20243;-80
2022/11/17 12:24:02;;;;;;;18.00;12.70;;;5.80;1.00;;;;;;5109308;27;20326;-80
2022/11/17 12:26:32;;;;;;;16.55;10.95;;;5.90;1.00;;;;;;5092252;27;20241;-81
2022/11/17 12:29:25;;;;;;;18.83;13.75;;;5.80;1.00;;;;;;5104212;27;20234;-80
2022/11/17 12:31:55;;;;;;;16.30;10.38;;;6.00;1.00;;;;;;5091173;27;20690;-86
2022/11/17 12:34:25;;;;;;;14.77;10.27;;;6.00;1.00;;;;;;5099497;27;20975;-80
2022/11/17 12:37:25;;;;;;;15.73;11.02;;;6.00;1.00;;;;;;5100163;27;20234;-81
2022/11/17 12:40:06;;;;;;;17.40;11.18;;;6.00;1.00;;;;;;5097067;27;20289;-80
2022/11/17 12:42:35;;;;;;;16.73;11.02;;;5.90;1.00;;;;;;5103220;27;20237;-81
2022/11/17 12:45:10;;;;;;;16.80;11.15;;;5.70;1.00;;;;;;5093653;27;20347;-81
2022/11/17 12:47:46;;;;;;;17.42;11.32;;;5.80;1.00;;;;;;5096341;27;20245;-81
2022/11/17 12:50:45;;;;;;;15.60;11.13;;;5.80;1.00;;;;;;5094706;27;20243;-86
2022/11/17 12:53:26;;;;;;;16.17;11.60;;;5.80;1.00;;;;;;5111093;27;20287;-83
2022/11/17 12:56:19;;;;;;;15.05;10.48;;;5.80;1.00;;;;;;5117376;27;20236;-80
2022/11/17 12:59:01;;;;;;;17.48;10.55;;;5.80;1.00;;;;;;5098015;27;20264;-81
2022/11/17 13:01:42;;;;;;;15.75;11.07;;;5.70;1.00;;;;;;5097331;27;20705;-81
2022/11/17 13:04:15;;;;;;;16.95;11.48;;;5.70;1.00;;;;;;5117438;27;20256;-81
2022/11/17 13:07:07;;;;;;;14.63;9.90;;;5.80;1.00;;;;;;5107593;27;20230;-81
2022/11/17 13:09:35;;;;;;;16.85;12.07;;;5.70;1.00;;;;;;5102110;27;20235;-80
2022/11/17 13:12:04;;;;;;;15.73;11.70;;;5.70;1.00;;;;;;5100504;27;21054;-82
2022/11/17 13:14:34;;;;;;;18.75;12.05;;;5.60;1.00;;;;;;5093472;27;20320;-86
2022/11/17 13:17:04;;;;;;;17.40;11.50;;;5.70;1.00;;;;;;5112047;27;20233;-81
2022/11/17 13:19:35;;;;;;;13.93;10.15;;;5.80;1.00;;;;;;5115154;27;20236;-81
2022/11/17 13:22:13;;;;;;;16.17;11.30;;;5.70;1.00;;;;;;5121982;27;20232;-81
2022/11/17 13:28:05;;;;;;;15.27;10.50;;;5.70;1.00;;;;;;5101225;27;20241;-79
2022/11/17 13:30:33;;;;;;;15.30;11.10;;;5.70;1.00;;;;;;5097701;27;21715;-81
2022/11/17 13:33:19;;;;;;;16.35;11.10;;;5.70;1.00;;;;;;5099180;27;20234;-80
2022/11/17 13:35:47;;;;;;;13.95;10.60;;;5.70;1.00;;;;;;5074503;27;20776;-80
2022/11/17 13:38:26;;;;;;;17.30;12.63;;;5.70;1.00;;;;;;5090375;27;20267;-79
2022/11/17 13:40:54;;;;;;;15.43;11.07;;;5.70;1.00;;;;;;5098677;27;20235;-81
2022/11/17 13:43:22;;;;;;;17.95;12.15;;;5.70;1.00;;;;;;5114030;27;20331;-81
2022/11/17 13:45:50;;;;;;;18.15;11.30;;;5.80;1.00;;;;;;5107711;27;20708;-81
2022/11/17 13:48:34;;;;;;;16.73;10.65;;;5.80;1.00;;;;;;5103134;27;20290;-79
2022/11/17 13:51:37;;;;;;;16.17;11.80;;;5.80;1.00;;;;;;5100781;27;20273;-79
2022/11/17 13:54:13;;;;;;;21.40;12.20;;;5.70;1.00;;;;;;5058557;28;20998;-84
2022/11/17 13:56:53;;;;;;;18.38;12.95;;;5.70;1.00;;;;;;5111562;27;20237;-80
2022/11/17 13:59:26;;;;;;;18.55;12.15;;;5.70;1.00;;;;;;5118315;27;20276;-84
2022/11/17 14:02:23;;;;;;;18.70;12.88;;;5.70;1.00;;;;;;5117763;27;20244;-83
2022/11/17 14:05:05;;;;;;;17.90;12.52;;;5.60;1.00;;;;;;5100933;27;20210;-81
2022/11/17 14:07:36;;;;;;;16.15;12.13;;;5.60;1.00;;;;;;5097884;27;20269;-81
2022/11/17 14:10:17;;;;;;;17.40;11.85;;;5.70;1.00;;;;;;5097460;27;20218;-80
2022/11/17 14:12:47;;;;;;;17.90;12.57;;;5.60;1.00;;;;;;5090938;27;21036;-79
2022/11/17 14:15:26;;;;;;;16.50;12.35;;;5.50;1.00;;;;;;5115110;27;20293;-80
2022/11/17 14:17:57;;;;;;;16.52;12.50;;;5.50;1.00;;;;;;5118868;27;20238;-80
2022/11/17 14:20:31;;;;;;;14.88;10.93;;;5.50;1.00;;;;;;5096695;27;20243;-81
2022/11/17 14:23:02;;;;;;;18.40;10.93;;;5.50;1.00;;;;;;5103543;27;20309;-81
2022/11/17 14:25:30;;;;;;;24.92;21.13;;;5.60;1.00;;;;;;5106844;27;20475;-81
2022/11/17 14:28:12;;;;;;;17.92;11.95;;;5.60;1.00;;;;;;5104037;27;20238;-81
2022/11/17 14:30:41;;;;;;;17.55;12.02;;;5.60;1.00;;;;;;5095176;27;20246;-81
2022/11/17 14:33:10;;;;;;;17.70;12.45;;;5.50;1.00;;;;;;5098236;27;20230;-80
2022/11/17 14:35:41;;;;;;;16.92;11.43;;;5.60;1.00;;;;;;5097820;27;20242;-82
2022/11/17 14:38:13;;;;;;;17.05;12.07;;;5.50;1.00;;;;;;5099806;27;20315;-80
2022/11/17 14:40:40;;;;;;;14.63;10.18;;;5.50;1.00;;;;;;5094378;27;20455;-83
2022/11/17 14:43:08;;;;;;;19.02;12.07;;;5.50;1.00;;;;;;5102758;27;20241;-78
2022/11/17 14:45:46;;;;;;;17.70;12.20;;;5.40;1.00;;;;;;5113164;27;20283;-80
2022/11/17 14:48:21;;;;;;;17.50;12.10;;;5.50;1.00;;;;;;5093788;27;20290;-82
2022/11/17 14:50:48;;;;;;;17.88;11.63;;;5.50;1.00;;;;;;5105046;27;20248;-79
2022/11/17 14:53:23;;;;;;;17.70;11.65;;;5.50;1.00;;;;;;5115101;27;20790;-82
2022/11/17 14:55:51;;;;;;;19.98;15.32;;;5.50;1.00;;;;;;5120480;27;20289;-82
2022/11/17 14:58:20;;;;;;;16.80;11.93;;;5.40;1.00;;;;;;5113633;27;20232;-81
2022/11/17 15:00:51;;;;;;;24.23;11.85;;;5.40;1.00;;;;;;5119444;27;20225;-79
2022/11/17 15:03:26;;;;;;;18.17;11.73;;;5.40;1.00;;;;;;5115990;27;20245;-81
2022/11/17 15:05:54;;;;;;;18.60;13.60;;;5.40;1.00;;;;;;5116946;27;20232;-85
2022/11/17 15:08:23;;;;;;;17.48;13.50;;;5.50;1.00;;;;;;5114126;27;20236;-81
2022/11/17 15:10:51;;;;;;;17.42;12.95;;;5.40;1.00;;;;;;5112807;27;20259;-82
2022/11/17 15:13:20;;;;;;;18.05;12.32;;;5.40;1.00;;;;;;5114949;27;20242;-81
2022/11/17 15:15:47;;;;;;;18.73;12.07;;;5.40;1.00;;;;;;5112718;27;20320;-82
2022/11/17 15:18:27;;;;;;;19.95;13.65;;;5.30;1.00;;;;;;5112791;27;20323;-80
2022/11/17 15:21:22;;;;;;;19.65;13.50;;;5.30;1.00;;;;;;5112550;27;20256;-81
2022/11/17 15:23:51;;;;;;;20.02;12.55;;;5.20;1.00;;;;;;5096029;27;20238;-80
2022/11/17 15:26:22;;;;;;;19.30;12.93;;;5.20;1.00;;;;;;5089413;27;20262;-80
2022/11/17 15:28:51;;;;;;;19.60;14.35;;;5.20;1.00;;;;;;5093036;27;20238;-83
2022/11/17 15:31:21;;;;;;;20.42;13.65;;;5.30;1.00;;;;;;5094557;27;20387;-81
2022/11/17 15:33:53;;;;;;;20.02;13.20;;;5.30;1.00;;;;;;5107626;27;20228;-82
2022/11/17 15:36:23;;;;;;;19.02;13.30;;;5.20;1.00;;;;;;5093033;27;20229;-80